createdAt,value
2022-11-17T00:03:29.775Z,14.80
2022-11-17T00:08:34.263Z,14.63
2022-11-17T00:13:54.825Z,16.08
2022-11-17T00:19:15.081Z,16.33
2022-11-17T00:24:19.350Z,16.63
2022-11-17T00:29:22.291Z,18.27
2022-11-17T00:34:25.027Z,17.73
2022-11-17T00:39:29.219Z,19.30
2022-11-17T00:44:32.733Z,17.85
2022-11-17T00:49:36.682Z,17.65
2022-11-17T00:54:40.922Z,18.23
2022-11-17T00:59:43.655Z,18.95
2022-11-17T01:04:46.435Z,17.55
2022-11-17T01:09:50.565Z,17.73
2022-11-17T01:14:53.341Z,20.90
2022-11-17T01:19:56.106Z,18.85
2022-11-17T01:25:00.228Z,17.98
2022-11-17T01:30:03.351Z,20.20
2022-11-17T01:35:06.964Z,18.30
2022-11-17T01:40:14.151Z,17.60
2022-11-17T01:45:22.010Z,18.13
2022-11-17T01:50:31.263Z,17.88
2022-11-17T01:55:39.313Z,17.90
2022-11-17T02:00:42.552Z,16.27
2022-11-17T02:05:52.854Z,17.40
2022-11-17T02:10:57.727Z,14.48
2022-11-17T02:16:00.491Z,14.02
2022-11-17T02:21:23.903Z,14.18
2022-11-17T02:26:55.941Z,16.15
2022-11-17T02:32:06.171Z,14.57
2022-11-17T02:37:13.915Z,12.80
2022-11-17T02:42:46.572Z,13.05
2022-11-17T02:47:55.283Z,12.93
2022-11-17T02:52:58.098Z,12.20
2022-11-17T02:58:00.893Z,10.57
2022-11-17T03:03:18.096Z,11.15
2022-11-17T03:08:33.223Z,11.63
2022-11-17T03:13:47.237Z,10.57
2022-11-17T03:19:01.873Z,11.45
2022-11-17T03:24:07.802Z,10.40
2022-11-17T03:29:15.992Z,12.25
2022-11-17T03:34:24.734Z,10.82
2022-11-17T03:39:32.584Z,10.90
2022-11-17T03:44:40.115Z,11.27
2022-11-17T03:49:50.451Z,12.32
2022-11-17T03:54:53.979Z,12.15
2022-11-17T04:00:04.559Z,11.77
2022-11-17T04:05:18.951Z,12.90
2022-11-17T04:10:25.614Z,13.10
2022-11-17T04:15:46.609Z,12.93
2022-11-17T04:20:53.345Z,14.60
2022-11-17T04:26:15.075Z,13.18
2022-11-17T04:31:19.921Z,12.45
2022-11-17T04:36:25.920Z,12.85
2022-11-17T04:41:47.888Z,14.02
2022-11-17T04:46:50.880Z,15.23
2022-11-17T04:51:55.337Z,14.07
2022-11-17T04:56:58.539Z,14.35
2022-11-17T05:02:05.899Z,15.27
2022-11-17T05:07:10.726Z,14.38
2022-11-17T05:12:30.895Z,13.80
2022-11-17T05:17:33.621Z,13.60
2022-11-17T05:23:06.377Z,13.27
2022-11-17T05:28:09.595Z,13.20
2022-11-17T05:33:12.372Z,13.43
2022-11-17T05:38:16.463Z,13.00
2022-11-17T05:43:19.199Z,12.73
2022-11-17T05:48:22.039Z,13.27
2022-11-17T05:53:26.333Z,11.07
2022-11-17T05:58:33.457Z,12.57
2022-11-17T06:03:43.118Z,12.57
2022-11-17T06:08:47.572Z,12.85
2022-11-17T06:13:50.347Z,12.27
2022-11-17T06:18:57.083Z,12.45
2022-11-17T06:24:02.251Z,11.85
2022-11-17T06:29:06.296Z,11.80
2022-11-17T06:34:09.847Z,12.75
2022-11-17T06:39:13.989Z,12.45
2022-11-17T06:44:16.739Z,9.57
2022-11-17T06:49:19.975Z,9.55
2022-11-17T06:54:24.129Z,10.13
2022-11-17T06:59:26.977Z,8.07
2022-11-17T07:04:29.785Z,8.48
2022-11-17T07:09:33.950Z,6.30
2022-11-17T07:14:36.801Z,6.05
2022-11-17T07:19:39.625Z,6.53
2022-11-17T07:24:43.795Z,5.70
2022-11-17T07:29:46.611Z,5.10
2022-11-17T07:34:49.697Z,5.28
2022-11-17T07:39:53.873Z,5.45
2022-11-17T07:44:56.662Z,5.18
2022-11-17T07:49:59.489Z,5.20
2022-11-17T07:55:03.662Z,5.60
2022-11-17T08:00:07.449Z,5.47
2022-11-17T08:05:17.309Z,5.55
2022-11-17T08:10:21.687Z,4.50
2022-11-17T08:15:24.890Z,5.13
2022-11-17T08:20:29.220Z,4.10
2022-11-17T08:25:33.457Z,4.28
2022-11-17T08:30:36.339Z,4.13
2022-11-17T08:35:39.179Z,3.38
2022-11-17T08:40:43.712Z,4.50
2022-11-17T08:45:46.575Z,4.60
2022-11-17T08:50:49.826Z,4.15
2022-11-17T08:55:54.073Z,5.18
2022-11-17T09:01:00.941Z,5.15
2022-11-17T09:06:07.208Z,3.90
2022-11-17T09:11:16.573Z,5.72
2022-11-17T09:16:19.655Z,4.65
2022-11-17T09:21:22.551Z,4.25
2022-11-17T09:26:26.852Z,4.55
2022-11-17T09:31:30.077Z,4.47
2022-11-17T09:36:33.354Z,5.05
2022-11-17T09:41:42.867Z,4.53
2022-11-17T09:46:57.113Z,3.45
2022-11-17T09:52:06.507Z,4.07
2022-11-17T09:57:21.524Z,4.07
2022-11-17T10:02:24.662Z,4.60
2022-11-17T10:07:28.814Z,4.35
2022-11-17T10:12:43.385Z,5.03
2022-11-17T10:17:46.169Z,4.63
2022-11-17T10:22:50.924Z,4.22
2022-11-17T10:27:55.184Z,3.28
2022-11-17T10:33:00.095Z,3.75
2022-11-17T10:38:06.813Z,3.15
2022-11-17T10:43:24.505Z,3.60
2022-11-17T10:48:32.263Z,4.32
2022-11-17T10:53:45.072Z,4.22
2022-11-17T10:59:03.575Z,4.05
2022-11-17T11:04:08.444Z,4.55
2022-11-17T11:09:15.113Z,4.78
2022-11-17T11:14:32.106Z,3.80
2022-11-17T11:19:35.393Z,3.60
2022-11-17T11:24:46.262Z,4.05
2022-11-17T11:30:00.147Z,4.53
2022-11-17T11:35:37.486Z,4.53
2022-11-17T11:40:44.507Z,4.45
2022-11-17T11:45:54.602Z,4.10
2022-11-17T11:50:59.484Z,4.20
2022-11-17T11:56:09.890Z,4.25
2022-11-17T12:01:17.134Z,4.68
2022-11-17T12:06:43.899Z,4.45
2022-11-17T12:12:03.694Z,4.43
2022-11-17T12:17:23.210Z,4.35
2022-11-17T12:22:57.486Z,4.10
2022-11-17T12:28:19.245Z,3.83
2022-11-17T12:33:24.078Z,4.03
2022-11-17T12:38:40.865Z,4.35
2022-11-17T12:43:43.697Z,4.30
2022-11-17T12:48:57.181Z,3.38
2022-11-17T12:54:14.540Z,3.90
2022-11-17T12:59:47.680Z,3.50
2022-11-17T13:04:58.660Z,2.97
2022-11-17T13:10:02.678Z,2.92
2022-11-17T13:15:06.776Z,2.63
2022-11-17T13:20:24.240Z,3.42
2022-11-17T13:25:27.133Z,3.42
2022-11-17T13:30:31.090Z,3.58
2022-11-17T13:35:36.994Z,3.13
2022-11-17T13:40:41.544Z,3.10
2022-11-17T13:45:45.763Z,3.40
2022-11-17T13:50:49.942Z,3.70
2022-11-17T13:55:54.168Z,3.75
2022-11-17T14:00:59.169Z,3.08
2022-11-17T14:06:05.386Z,3.83
2022-11-17T14:11:16.320Z,3.30
2022-11-17T14:16:28.760Z,3.13
2022-11-17T14:21:33.733Z,3.30
2022-11-17T14:26:44.465Z,3.90
2022-11-17T14:31:47.274Z,3.10
2022-11-17T14:36:54.625Z,4.10
2022-11-17T14:41:57.892Z,3.85
2022-11-17T14:47:00.682Z,4.13
2022-11-17T14:52:05.209Z,3.60
2022-11-17T14:57:08.054Z,5.28
2022-11-17T15:02:11.307Z,4.45
2022-11-17T15:07:15.437Z,4.40
2022-11-17T15:12:18.512Z,5.22
2022-11-17T15:17:21.329Z,6.30
2022-11-17T15:22:25.466Z,5.65
2022-11-17T15:27:28.304Z,4.53
2022-11-17T15:32:31.097Z,7.05
2022-11-17T15:37:35.207Z,7.10
2022-11-17T15:42:37.987Z,5.30
2022-11-17T15:47:40.750Z,5.20
2022-11-17T15:58:07.673Z,15.80
2022-11-17T16:03:10.470Z,6.07
2022-11-17T16:08:14.653Z,5.18
2022-11-17T16:13:17.505Z,8.18
2022-11-17T16:18:20.557Z,10.02
2022-11-17T16:23:24.752Z,9.95
2022-11-17T16:28:27.537Z,6.20
2022-11-17T16:33:30.298Z,13.23
2022-11-17T16:38:34.499Z,12.38
2022-11-17T16:43:44.278Z,7.10
2022-11-17T16:48:48.625Z,7.32
2022-11-17T16:53:58.584Z,7.97
2022-11-17T16:59:01.685Z,13.63
2022-11-17T17:04:06.986Z,6.90
2022-11-17T17:09:13.105Z,7.90
2022-11-17T17:14:16.701Z,6.80
2022-11-17T17:19:19.755Z,6.68
2022-11-17T17:24:24.114Z,7.47
2022-11-17T17:29:26.979Z,7.47
2022-11-17T17:34:29.867Z,8.13
2022-11-17T17:39:34.368Z,6.63
2022-11-17T17:44:37.253Z,6.68
2022-11-17T17:49:40.088Z,7.70
2022-11-17T17:54:44.184Z,7.72
2022-11-17T17:59:47.010Z,8.35
2022-11-17T18:04:49.764Z,8.48
2022-11-17T18:09:53.896Z,13.18
2022-11-17T18:14:56.813Z,14.43
2022-11-17T18:19:59.633Z,15.52
2022-11-17T18:25:07.575Z,10.18
2022-11-17T18:30:11.425Z,10.20
2022-11-17T18:35:14.256Z,12.70
2022-11-17T18:40:18.411Z,9.93
2022-11-17T18:45:21.165Z,10.30
2022-11-17T18:50:23.985Z,9.52
2022-11-17T18:55:28.213Z,9.32
2022-11-17T19:00:30.993Z,9.10
2022-11-17T19:05:35.165Z,10.00
2022-11-17T19:10:39.440Z,10.27
2022-11-17T19:15:42.225Z,9.70
2022-11-17T19:20:45.238Z,9.80
2022-11-17T19:25:49.308Z,15.48
2022-11-17T19:30:52.030Z,18.27
2022-11-17T19:35:54.772Z,18.83
2022-11-17T19:41:02.641Z,12.68
2022-11-17T19:46:07.813Z,10.30
2022-11-17T19:51:16.757Z,9.93
2022-11-17T19:56:21.876Z,11.07
2022-11-17T20:01:26.834Z,10.48
2022-11-17T20:06:32.974Z,10.05
2022-11-17T20:11:37.633Z,9.63
2022-11-17T20:16:40.437Z,10.23
2022-11-17T20:21:43.234Z,10.65
2022-11-17T20:26:47.416Z,11.02
2022-11-17T20:31:50.213Z,11.98
2022-11-17T20:36:53.020Z,11.75
2022-11-17T20:41:57.098Z,11.45
2022-11-17T20:46:59.908Z,9.93
2022-11-17T20:52:02.782Z,11.00
2022-11-17T20:57:06.929Z,11.27
2022-11-17T21:02:10.406Z,10.05
2022-11-17T21:07:13.194Z,11.95
2022-11-17T21:12:17.459Z,11.43
2022-11-17T21:17:37.785Z,11.75
2022-11-17T21:22:40.661Z,12.43
2022-11-17T21:27:44.773Z,11.50
2022-11-17T21:32:47.694Z,10.85
2022-11-17T21:37:50.446Z,11.80
2022-11-17T21:42:54.501Z,12.23
2022-11-17T21:47:59.497Z,11.43
2022-11-17T21:53:02.613Z,12.07
2022-11-17T21:58:06.740Z,12.20
2022-11-17T22:03:09.455Z,11.85
2022-11-17T22:08:12.264Z,12.88
2022-11-17T22:13:16.385Z,12.25
2022-11-17T22:18:19.136Z,12.88
2022-11-17T22:23:21.836Z,12.57
2022-11-17T22:28:26.465Z,13.35
2022-11-17T22:33:29.224Z,13.60
2022-11-17T22:38:32.192Z,13.18
2022-11-17T22:43:36.511Z,12.35
2022-11-17T22:48:39.487Z,13.55
2022-11-17T22:53:42.296Z,13.98
2022-11-17T22:58:50.009Z,13.65
2022-11-17T23:03:52.927Z,13.48
2022-11-17T23:08:56.235Z,14.32
2022-11-17T23:14:00.899Z,14.15
2022-11-17T23:19:03.725Z,15.02
2022-11-17T23:24:09.369Z,14.25
2022-11-17T23:29:13.832Z,14.38
2022-11-17T23:34:17.095Z,13.65
2022-11-17T23:39:20.037Z,13.48
2022-11-17T23:44:24.143Z,14.52
2022-11-17T23:49:26.861Z,14.02
2022-11-17T23:54:29.674Z,14.07
2022-11-17T23:59:33.981Z,14.52
